sensor_id;sensor_type;location;lat;lon;timestamp;P1;durP1;ratioP1;P2;durP2;ratioP2
1753;SDS011;58380;48.312;9.246;2023-03-21T06:33:30;4.97;;;2.55;;
1753;SDS011;58380;48.312;9.246;2023-03-21T06:35:56;10.57;;;4.37;;
1753;SDS011;58380;48.312;9.246;2023-03-21T06:38:28;26.15;;;10.23;;
1753;SDS011;58380;48.312;9.246;2023-03-21T06:41:04;48.67;;;17.08;;
1753;SDS011;58380;48.312;9.246;2023-03-21T06:43:55;40.17;;;13.77;;
1753;SDS011;58380;48.312;9.246;2023-03-21T06:46:25;16.42;;;5.95;;
1753;SDS011;58380;48.312;9.246;2023-03-21T06:48:51;19.65;;;7.72;;
1753;SDS011;58380;48.312;9.246;2023-03-21T06:51:17;10.30;;;4.37;;
1753;SDS011;58380;48.312;9.246;2023-03-21T06:53:48;7.05;;;3.05;;
1753;SDS011;58380;48.312;9.246;2023-03-21T06:56:19;6.30;;;2.47;;
1753;SDS011;58380;48.312;9.246;2023-03-21T06:58:48;5.55;;;2.85;;
1753;SDS011;58380;48.312;9.246;2023-03-21T07:01:13;11.98;;;3.25;;
1753;SDS011;58380;48.312;9.246;2023-03-21T07:03:40;14.13;;;3.58;;
1753;SDS011;58380;48.312;9.246;2023-03-21T07:06:10;20.40;;;9.75;;
1753;SDS011;58380;48.312;9.246;2023-03-21T07:08:44;23.02;;;11.57;;
1753;SDS011;58380;48.312;9.246;2023-03-21T07:11:12;32.05;;;13.23;;
1753;SDS011;58380;48.312;9.246;2023-03-21T07:13:40;18.55;;;9.77;;
1753;SDS011;58380;48.312;9.246;2023-03-21T07:16:06;11.95;;;5.90;;
1753;SDS011;58380;48.312;9.246;2023-03-21T07:20:57;12.43;;;5.13;;
1753;SDS011;58380;48.312;9.246;2023-03-21T07:23:23;9.43;;;5.05;;
1753;SDS011;58380;48.312;9.246;2023-03-21T07:25:51;9.75;;;5.30;;
1753;SDS011;58380;48.312;9.246;2023-03-21T07:30:44;8.95;;;4.38;;
1753;SDS011;58380;48.312;9.246;2023-03-21T07:33:17;7.45;;;4.07;;
1753;SDS011;58380;48.312;9.246;2023-03-21T07:35:43;7.63;;;3.72;;
1753;SDS011;58380;48.312;9.246;2023-03-21T07:38:09;4.90;;;2.95;;
1753;SDS011;58380;48.312;9.246;2023-03-21T07:40:34;5.20;;;2.90;;
1753;SDS011;58380;48.312;9.246;2023-03-21T07:43:00;4.15;;;2.53;;
1753;SDS011;58380;48.312;9.246;2023-03-21T07:45:25;5.60;;;2.90;;
1753;SDS011;58380;48.312;9.246;2023-03-21T07:47:52;6.22;;;2.53;;
1753;SDS011;58380;48.312;9.246;2023-03-21T07:50:21;6.13;;;2.97;;
1753;SDS011;58380;48.312;9.246;2023-03-21T07:52:47;9.02;;;4.25;;
1753;SDS011;58380;48.312;9.246;2023-03-21T07:55:15;8.02;;;3.25;;
1753;SDS011;58380;48.312;9.246;2023-03-21T07:57:41;12.25;;;4.32;;
1753;SDS011;58380;48.312;9.246;2023-03-21T08:00:07;7.78;;;3.90;;
1753;SDS011;58380;48.312;9.246;2023-03-21T08:02:34;6.65;;;3.53;;
1753;SDS011;58380;48.312;9.246;2023-03-21T08:05:01;8.60;;;4.20;;
1753;SDS011;58380;48.312;9.246;2023-03-21T08:07:28;9.95;;;3.90;;
1753;SDS011;58380;48.312;9.246;2023-03-21T08:09:54;9.85;;;3.97;;
1753;SDS011;58380;48.312;9.246;2023-03-21T08:12:25;7.22;;;3.85;;
1753;SDS011;58380;48.312;9.246;2023-03-21T08:15:05;7.85;;;4.20;;
1753;SDS011;58380;48.312;9.246;2023-03-21T08:17:32;5.53;;;3.30;;
1753;SDS011;58380;48.312;9.246;2023-03-21T08:19:57;5.33;;;2.93;;
1753;SDS011;58380;48.312;9.246;2023-03-21T08:22:23;5.73;;;2.83;;
1753;SDS011;58380;48.312;9.246;2023-03-21T08:24:48;7.63;;;3.20;;
1753;SDS011;58380;48.312;9.246;2023-03-21T08:27:13;5.80;;;2.50;;
1753;SDS011;58380;48.312;9.246;2023-03-21T08:29:39;6.32;;;2.20;;
1753;SDS011;58380;48.312;9.246;2023-03-21T08:32:06;3.45;;;2.05;;
1753;SDS011;58380;48.312;9.246;2023-03-21T08:34:32;4.95;;;1.73;;
1753;SDS011;58380;48.312;9.246;2023-03-21T08:36:59;4.07;;;1.63;;
1753;SDS011;58380;48.312;9.246;2023-03-21T08:39:25;3.28;;;1.95;;
1753;SDS011;58380;48.312;9.246;2023-03-21T08:41:51;3.45;;;1.70;;
1753;SDS011;58380;48.312;9.246;2023-03-21T08:44:17;3.58;;;2.05;;
1753;SDS011;58380;48.312;9.246;2023-03-21T08:46:51;5.18;;;3.20;;
1753;SDS011;58380;48.312;9.246;2023-03-21T08:49:17;4.55;;;2.55;;
1753;SDS011;58380;48.312;9.246;2023-03-21T08:51:42;6.10;;;2.70;;
1753;SDS011;58380;48.312;9.246;2023-03-21T08:54:16;7.80;;;3.60;;
1753;SDS011;58380;48.312;9.246;2023-03-21T08:56:44;6.43;;;3.33;;
1753;SDS011;58380;48.312;9.246;2023-03-21T08:59:10;8.75;;;4.95;;
1753;SDS011;58380;48.312;9.246;2023-03-21T09:01:35;7.25;;;3.58;;
1753;SDS011;58380;48.312;9.246;2023-03-21T09:04:01;6.15;;;3.65;;
1753;SDS011;58380;48.312;9.246;2023-03-21T09:06:27;7.07;;;3.92;;
1753;SDS011;58380;48.312;9.246;2023-03-21T09:08:53;8.07;;;4.75;;
1753;SDS011;58380;48.312;9.246;2023-03-21T09:11:20;5.82;;;3.40;;
1753;SDS011;58380;48.312;9.246;2023-03-21T09:13:46;6.57;;;3.65;;
1753;SDS011;58380;48.312;9.246;2023-03-21T09:16:12;6.37;;;3.67;;
1753;SDS011;58380;48.312;9.246;2023-03-21T09:18:37;6.33;;;3.27;;
1753;SDS011;58380;48.312;9.246;2023-03-21T09:21:11;4.68;;;2.75;;
1753;SDS011;58380;48.312;9.246;2023-03-21T09:23:39;6.63;;;3.25;;
1753;SDS011;58380;48.312;9.246;2023-03-21T09:26:06;6.13;;;2.90;;
1753;SDS011;58380;48.312;9.246;2023-03-21T09:28:33;5.55;;;2.75;;
1753;SDS011;58380;48.312;9.246;2023-03-21T09:31:02;4.78;;;2.53;;
1753;SDS011;58380;48.312;9.246;2023-03-21T09:33:29;5.82;;;2.83;;
1753;SDS011;58380;48.312;9.246;2023-03-21T09:35:55;4.57;;;3.03;;
1753;SDS011;58380;48.312;9.246;2023-03-21T09:38:24;5.25;;;2.70;;
1753;SDS011;58380;48.312;9.246;2023-03-21T09:41:06;4.50;;;2.63;;
1753;SDS011;58380;48.312;9.246;2023-03-21T09:47:01;4.65;;;2.63;;
1753;SDS011;58380;48.312;9.246;2023-03-21T09:49:34;4.78;;;2.30;;
1753;SDS011;58380;48.312;9.246;2023-03-21T09:52:15;5.40;;;2.67;;
1753;SDS011;58380;48.312;9.246;2023-03-21T09:54:48;6.00;;;2.15;;
1753;SDS011;58380;48.312;9.246;2023-03-21T09:57:18;2.97;;;2.13;;
1753;SDS011;58380;48.312;9.246;2023-03-21T10:00:12;6.97;;;2.40;;
1753;SDS011;58380;48.312;9.246;2023-03-21T10:02:49;4.05;;;2.22;;
1753;SDS011;58380;48.312;9.246;2023-03-21T10:05:19;5.22;;;2.50;;
1753;SDS011;58380;48.312;9.246;2023-03-21T10:07:50;4.55;;;2.47;;
1753;SDS011;58380;48.312;9.246;2023-03-21T10:10:26;5.07;;;2.43;;
1753;SDS011;58380;48.312;9.246;2023-03-21T10:12:58;5.25;;;2.20;;
1753;SDS011;58380;48.312;9.246;2023-03-21T10:15:24;4.90;;;2.27;;
1753;SDS011;58380;48.312;9.246;2023-03-21T10:18:01;4.07;;;2.38;;
1753;SDS011;58380;48.312;9.246;2023-03-21T10:20:32;5.00;;;2.08;;
1753;SDS011;58380;48.312;9.246;2023-03-21T10:23:05;3.22;;;1.90;;
1753;SDS011;58380;48.312;9.246;2023-03-21T10:25:42;2.63;;;1.70;;
1753;SDS011;58380;48.312;9.246;2023-03-21T10:28:20;4.53;;;1.92;;
1753;SDS011;58380;48.312;9.246;2023-03-21T10:30:54;5.30;;;2.22;;
1753;SDS011;58380;48.312;9.246;2023-03-21T10:33:26;5.22;;;1.88;;
1753;SDS011;58380;48.312;9.246;2023-03-21T10:36:00;3.97;;;1.95;;
1753;SDS011;58380;48.312;9.246;2023-03-21T10:38:31;3.45;;;1.60;;
1753;SDS011;58380;48.312;9.246;2023-03-21T10:40:57;3.25;;;1.90;;
1753;SDS011;58380;48.312;9.246;2023-03-21T10:45:51;4.45;;;1.65;;
1753;SDS011;58380;48.312;9.246;2023-03-21T10:48:18;3.67;;;2.13;;
1753;SDS011;58380;48.312;9.246;2023-03-21T10:50:46;4.80;;;2.00;;
1753;SDS011;58380;48.312;9.246;2023-03-21T10:53:20;5.20;;;2.20;;
1753;SDS011;58380;48.312;9.246;2023-03-21T10:55:55;3.60;;;1.88;;
1753;SDS011;58380;48.312;9.246;2023-03-21T10:58:25;3.33;;;1.77;;
1753;SDS011;58380;48.312;9.246;2023-03-21T11:00:55;4.43;;;1.85;;
1753;SDS011;58380;48.312;9.246;2023-03-21T11:03:27;4.03;;;2.10;;
1753;SDS011;58380;48.312;9.246;2023-03-21T11:06:15;2.95;;;1.60;;
1753;SDS011;58380;48.312;9.246;2023-03-21T11:08:55;2.72;;;1.63;;
1753;SDS011;58380;48.312;9.246;2023-03-21T11:11:32;3.97;;;2.33;;
1753;SDS011;58380;48.312;9.246;2023-03-21T11:14:03;4.72;;;1.92;;
1753;SDS011;58380;48.312;9.246;2023-03-21T11:16:40;2.95;;;1.70;;
1753;SDS011;58380;48.312;9.246;2023-03-21T11:19:15;4.90;;;2.08;;
1753;SDS011;58380;48.312;9.246;2023-03-21T11:21:55;7.95;;;3.88;;
1753;SDS011;58380;48.312;9.246;2023-03-21T11:24:30;2.83;;;1.80;;
1753;SDS011;58380;48.312;9.246;2023-03-21T11:26:57;7.05;;;2.08;;
1753;SDS011;58380;48.312;9.246;2023-03-21T11:32:21;6.15;;;2.58;;
1753;SDS011;58380;48.312;9.246;2023-03-21T11:34:58;6.18;;;2.83;;
1753;SDS011;58380;48.312;9.246;2023-03-21T11:37:38;3.27;;;1.93;;
1753;SDS011;58380;48.312;9.246;2023-03-21T11:42:55;8.60;;;3.90;;
1753;SDS011;58380;48.312;9.246;2023-03-21T11:47:49;2.57;;;1.53;;
1753;SDS011;58380;48.312;9.246;2023-03-21T11:50:25;8.55;;;3.20;;
1753;SDS011;58380;48.312;9.246;2023-03-21T11:52:55;3.22;;;1.77;;
1753;SDS011;58380;48.312;9.246;2023-03-21T11:58:36;2.47;;;1.40;;
1753;SDS011;58380;48.312;9.246;2023-03-21T12:07:08;7.32;;;3.47;;
1753;SDS011;58380;48.312;9.246;2023-03-21T12:21:07;9.80;;;3.92;;
1753;SDS011;58380;48.312;9.246;2023-03-21T12:27:21;3.55;;;1.73;;
1753;SDS011;58380;48.312;9.246;2023-03-21T12:33:12;4.13;;;1.70;;
1753;SDS011;58380;48.312;9.246;2023-03-21T12:39:12;6.72;;;1.92;;
1753;SDS011;58380;48.312;9.246;2023-03-21T12:45:22;6.28;;;2.17;;
1753;SDS011;58380;48.312;9.246;2023-03-21T12:47:54;4.03;;;1.85;;
1753;SDS011;58380;48.312;9.246;2023-03-21T12:50:37;4.78;;;1.50;;
1753;SDS011;58380;48.312;9.246;2023-03-21T12:53:18;3.03;;;1.10;;
1753;SDS011;58380;48.312;9.246;2023-03-21T12:56:28;4.35;;;1.10;;
1753;SDS011;58380;48.312;9.246;2023-03-21T12:59:18;2.53;;;0.98;;
1753;SDS011;58380;48.312;9.246;2023-03-21T13:02:15;4.00;;;1.40;;
1753;SDS011;58380;48.312;9.246;2023-03-21T13:04:48;2.23;;;1.10;;
1753;SDS011;58380;48.312;9.246;2023-03-21T13:07:24;2.53;;;0.98;;
1753;SDS011;58380;48.312;9.246;2023-03-21T13:09:53;3.80;;;0.80;;
1753;SDS011;58380;48.312;9.246;2023-03-21T13:18:20;2.50;;;1.00;;
1753;SDS011;58380;48.312;9.246;2023-03-21T13:21:12;4.13;;;1.40;;
1753;SDS011;58380;48.312;9.246;2023-03-21T13:24:01;5.97;;;2.90;;
1753;SDS011;58380;48.312;9.246;2023-03-21T13:26:37;3.20;;;1.20;;
1753;SDS011;58380;48.312;9.246;2023-03-21T13:29:24;1.37;;;0.90;;
1753;SDS011;58380;48.312;9.246;2023-03-21T13:32:03;2.70;;;0.80;;
1753;SDS011;58380;48.312;9.246;2023-03-21T13:34:39;2.72;;;0.70;;
1753;SDS011;58380;48.312;9.246;2023-03-21T13:37:05;1.60;;;0.70;;
1753;SDS011;58380;48.312;9.246;2023-03-21T13:39:44;3.53;;;1.10;;
1753;SDS011;58380;48.312;9.246;2023-03-21T13:42:16;1.38;;;0.73;;
1753;SDS011;58380;48.312;9.246;2023-03-21T13:44:49;3.40;;;0.93;;
1753;SDS011;58380;48.312;9.246;2023-03-21T13:50:25;1.73;;;1.00;;
1753;SDS011;58380;48.312;9.246;2023-03-21T13:53:08;4.13;;;1.10;;
1753;SDS011;58380;48.312;9.246;2023-03-21T13:55:45;2.00;;;0.90;;
1753;SDS011;58380;48.312;9.246;2023-03-21T13:58:33;1.20;;;0.63;;
1753;SDS011;58380;48.312;9.246;2023-03-21T14:01:35;1.13;;;0.63;;
1753;SDS011;58380;48.312;9.246;2023-03-21T14:04:15;1.15;;;0.68;;
1753;SDS011;58380;48.312;9.246;2023-03-21T14:09:23;2.13;;;0.80;;
1753;SDS011;58380;48.312;9.246;2023-03-21T14:12:02;1.00;;;0.60;;
1753;SDS011;58380;48.312;9.246;2023-03-21T14:14:34;1.15;;;0.70;;
1753;SDS011;58380;48.312;9.246;2023-03-21T14:17:47;0.98;;;0.50;;
1753;SDS011;58380;48.312;9.246;2023-03-21T14:20:10;1.35;;;0.63;;
1753;SDS011;58380;48.312;9.246;2023-03-21T14:22:45;2.25;;;0.70;;
1753;SDS011;58380;48.312;9.246;2023-03-21T14:25:13;1.15;;;0.60;;
1753;SDS011;58380;48.312;9.246;2023-03-21T14:27:42;1.50;;;0.60;;
1753;SDS011;58380;48.312;9.246;2023-03-21T14:30:27;2.53;;;0.82;;
1753;SDS011;58380;48.312;9.246;2023-03-21T14:34:03;3.45;;;0.70;;
1753;SDS011;58380;48.312;9.246;2023-03-21T14:36:16;1.63;;;0.90;;
1753;SDS011;58380;48.312;9.246;2023-03-21T14:38:53;3.53;;;0.98;;
1753;SDS011;58380;48.312;9.246;2023-03-21T14:41:22;2.38;;;1.23;;
1753;SDS011;58380;48.312;9.246;2023-03-21T14:44:11;3.47;;;1.15;;
1753;SDS011;58380;48.312;9.246;2023-03-21T14:47:17;1.17;;;0.70;;
1753;SDS011;58380;48.312;9.246;2023-03-21T14:49:45;1.63;;;0.80;;
1753;SDS011;58380;48.312;9.246;2023-03-21T14:52:15;2.75;;;0.93;;
1753;SDS011;58380;48.312;9.246;2023-03-21T14:54:55;1.30;;;0.70;;
1753;SDS011;58380;48.312;9.246;2023-03-21T14:57:23;2.65;;;0.90;;
1753;SDS011;58380;48.312;9.246;2023-03-21T14:59:55;1.42;;;0.73;;
1753;SDS011;58380;48.312;9.246;2023-03-21T15:02:27;3.58;;;0.88;;
1753;SDS011;58380;48.312;9.246;2023-03-21T15:05:04;6.88;;;1.98;;
1753;SDS011;58380;48.312;9.246;2023-03-21T15:08:15;5.07;;;2.20;;
1753;SDS011;58380;48.312;9.246;2023-03-21T15:10:59;2.95;;;1.30;;
1753;SDS011;58380;48.312;9.246;2023-03-21T15:13:33;1.55;;;0.93;;
1753;SDS011;58380;48.312;9.246;2023-03-21T15:16:06;2.60;;;0.80;;
1753;SDS011;58380;48.312;9.246;2023-03-21T15:18:36;1.48;;;0.77;;
1753;SDS011;58380;48.312;9.246;2023-03-21T15:21:05;0.73;;;0.70;;
1753;SDS011;58380;48.312;9.246;2023-03-21T15:23:39;1.73;;;0.75;;
1753;SDS011;58380;48.312;9.246;2023-03-21T15:26:11;1.75;;;0.88;;
1753;SDS011;58380;48.312;9.246;2023-03-21T15:28:44;6.22;;;0.93;;
1753;SDS011;58380;48.312;9.246;2023-03-21T15:31:17;2.08;;;0.68;;
1753;SDS011;58380;48.312;9.246;2023-03-21T15:33:47;1.90;;;0.98;;
1753;SDS011;58380;48.312;9.246;2023-03-21T15:36:25;3.15;;;0.93;;
1753;SDS011;58380;48.312;9.246;2023-03-21T15:38:55;2.55;;;0.90;;
1753;SDS011;58380;48.312;9.246;2023-03-21T15:41:25;1.48;;;0.70;;
1753;SDS011;58380;48.312;9.246;2023-03-21T15:44:03;1.52;;;0.65;;
1753;SDS011;58380;48.312;9.246;2023-03-21T15:46:39;1.55;;;0.80;;
1753;SDS011;58380;48.312;9.246;2023-03-21T15:51:40;1.35;;;0.77;;
1753;SDS011;58380;48.312;9.246;2023-03-21T15:54:26;1.42;;;0.70;;
1753;SDS011;58380;48.312;9.246;2023-03-21T15:56:57;2.10;;;0.70;;
1753;SDS011;58380;48.312;9.246;2023-03-21T15:59:30;1.83;;;0.80;;
1753;SDS011;58380;48.312;9.246;2023-03-21T16:02:02;3.45;;;1.00;;
1753;SDS011;58380;48.312;9.246;2023-03-21T16:04:29;3.78;;;1.00;;
1753;SDS011;58380;48.312;9.246;2023-03-21T16:06:56;3.83;;;0.60;;
1753;SDS011;58380;48.312;9.246;2023-03-21T16:09:43;2.00;;;0.85;;
1753;SDS011;58380;48.312;9.246;2023-03-21T16:12:12;3.00;;;1.10;;
1753;SDS011;58380;48.312;9.246;2023-03-21T16:14:39;1.13;;;0.68;;
1753;SDS011;58380;48.312;9.246;2023-03-21T16:17:31;1.35;;;0.70;;
1753;SDS011;58380;48.312;9.246;2023-03-21T16:20:09;2.38;;;1.00;;
1753;SDS011;58380;48.312;9.246;2023-03-21T16:22:44;0.85;;;0.63;;
1753;SDS011;58380;48.312;9.246;2023-03-21T16:25:10;1.10;;;0.70;;
1753;SDS011;58380;48.312;9.246;2023-03-21T16:27:35;2.38;;;0.80;;
1753;SDS011;58380;48.312;9.246;2023-03-21T16:30:01;4.22;;;1.73;;
1753;SDS011;58380;48.312;9.246;2023-03-21T16:32:27;1.95;;;1.30;;
1753;SDS011;58380;48.312;9.246;2023-03-21T16:34:52;3.58;;;1.40;;
1753;SDS011;58380;48.312;9.246;2023-03-21T16:37:18;3.30;;;2.00;;
1753;SDS011;58380;48.312;9.246;2023-03-21T16:39:45;4.05;;;1.52;;
1753;SDS011;58380;48.312;9.246;2023-03-21T16:42:11;2.50;;;1.33;;
1753;SDS011;58380;48.312;9.246;2023-03-21T16:44:37;1.73;;;1.02;;
1753;SDS011;58380;48.312;9.246;2023-03-21T16:47:03;1.42;;;0.75;;
1753;SDS011;58380;48.312;9.246;2023-03-21T16:49:38;2.08;;;0.95;;
1753;SDS011;58380;48.312;9.246;2023-03-21T16:52:03;1.77;;;0.80;;
1753;SDS011;58380;48.312;9.246;2023-03-21T16:54:30;1.70;;;0.80;;
1753;SDS011;58380;48.312;9.246;2023-03-21T16:56:55;2.23;;;0.90;;
1753;SDS011;58380;48.312;9.246;2023-03-21T16:59:23;4.75;;;2.00;;
1753;SDS011;58380;48.312;9.246;2023-03-21T17:01:49;3.55;;;1.48;;
1753;SDS011;58380;48.312;9.246;2023-03-21T17:06:46;7.07;;;2.30;;
1753;SDS011;58380;48.312;9.246;2023-03-21T17:09:21;5.63;;;2.40;;
1753;SDS011;58380;48.312;9.246;2023-03-21T17:11:50;10.65;;;3.80;;
1753;SDS011;58380;48.312;9.246;2023-03-21T17:14:15;10.43;;;4.50;;
1753;SDS011;58380;48.312;9.246;2023-03-21T17:16:42;7.72;;;3.70;;
1753;SDS011;58380;48.312;9.246;2023-03-21T17:19:15;9.95;;;4.75;;
1753;SDS011;58380;48.312;9.246;2023-03-21T17:21:44;7.07;;;3.75;;
1753;SDS011;58380;48.312;9.246;2023-03-21T17:24:10;6.00;;;1.52;;
1753;SDS011;58380;48.312;9.246;2023-03-21T17:26:36;6.47;;;1.13;;
1753;SDS011;58380;48.312;9.246;2023-03-21T17:29:02;1.42;;;0.68;;
1753;SDS011;58380;48.312;9.246;2023-03-21T17:31:31;3.65;;;1.13;;
1753;SDS011;58380;48.312;9.246;2023-03-21T17:34:00;4.20;;;2.35;;
1753;SDS011;58380;48.312;9.246;2023-03-21T17:36:30;5.18;;;2.63;;
1753;SDS011;58380;48.312;9.246;2023-03-21T17:38:59;6.90;;;4.32;;
1753;SDS011;58380;48.312;9.246;2023-03-21T17:41:24;7.53;;;4.10;;
1753;SDS011;58380;48.312;9.246;2023-03-21T17:43:51;5.20;;;2.67;;
1753;SDS011;58380;48.312;9.246;2023-03-21T17:46:19;3.55;;;1.17;;
1753;SDS011;58380;48.312;9.246;2023-03-21T17:48:47;8.02;;;1.40;;
1753;SDS011;58380;48.312;9.246;2023-03-21T17:51:14;2.85;;;1.20;;
1753;SDS011;58380;48.312;9.246;2023-03-21T17:53:41;6.43;;;0.90;;
1753;SDS011;58380;48.312;9.246;2023-03-21T17:56:34;2.30;;;1.00;;
1753;SDS011;58380;48.312;9.246;2023-03-21T17:59:02;2.72;;;0.90;;
1753;SDS011;58380;48.312;9.246;2023-03-21T18:01:31;4.28;;;0.90;;
1753;SDS011;58380;48.312;9.246;2023-03-21T18:03:59;2.75;;;0.85;;
1753;SDS011;58380;48.312;9.246;2023-03-21T18:06:29;4.10;;;0.98;;
1753;SDS011;58380;48.312;9.246;2023-03-21T18:08:58;3.83;;;1.13;;
1753;SDS011;58380;48.312;9.246;2023-03-21T18:11:35;4.50;;;0.90;;
1753;SDS011;58380;48.312;9.246;2023-03-21T18:14:04;1.02;;;0.70;;
1753;SDS011;58380;48.312;9.246;2023-03-21T18:16:30;8.68;;;1.10;;
1753;SDS011;58380;48.312;9.246;2023-03-21T18:18:58;0.80;;;0.50;;
1753;SDS011;58380;48.312;9.246;2023-03-21T18:21:29;5.05;;;1.73;;
1753;SDS011;58380;48.312;9.246;2023-03-21T18:23:55;5.55;;;2.50;;
1753;SDS011;58380;48.312;9.246;2023-03-21T18:26:20;5.93;;;1.57;;
1753;SDS011;58380;48.312;9.246;2023-03-21T18:28:46;2.53;;;1.10;;
1753;SDS011;58380;48.312;9.246;2023-03-21T18:31:14;1.95;;;0.68;;
1753;SDS011;58380;48.312;9.246;2023-03-21T18:33:43;5.75;;;0.70;;
1753;SDS011;58380;48.312;9.246;2023-03-21T18:36:12;2.30;;;0.68;;
1753;SDS011;58380;48.312;9.246;2023-03-21T18:38:43;4.90;;;1.15;;
1753;SDS011;58380;48.312;9.246;2023-03-21T18:41:09;3.08;;;0.63;;
1753;SDS011;58380;48.312;9.246;2023-03-21T18:46:01;4.50;;;0.80;;
1753;SDS011;58380;48.312;9.246;2023-03-21T18:48:28;0.40;;;0.40;;
1753;SDS011;58380;48.312;9.246;2023-03-21T18:50:54;3.85;;;0.70;;
1753;SDS011;58380;48.312;9.246;2023-03-21T18:53:23;3.05;;;0.80;;
1753;SDS011;58380;48.312;9.246;2023-03-21T18:55:51;5.13;;;0.90;;
1753;SDS011;58380;48.312;9.246;2023-03-21T18:58:26;3.92;;;0.88;;
1753;SDS011;58380;48.312;9.246;2023-03-21T19:00:53;1.08;;;0.70;;
1753;SDS011;58380;48.312;9.246;2023-03-21T19:03:24;2.10;;;0.80;;
1753;SDS011;58380;48.312;9.246;2023-03-21T19:05:56;1.67;;;0.75;;
1753;SDS011;58380;48.312;9.246;2023-03-21T19:08:28;8.35;;;0.82;;
1753;SDS011;58380;48.312;9.246;2023-03-21T19:10:58;5.72;;;0.93;;
1753;SDS011;58380;48.312;9.246;2023-03-21T19:13:27;2.13;;;1.00;;
1753;SDS011;58380;48.312;9.246;2023-03-21T19:15:52;4.68;;;0.85;;
1753;SDS011;58380;48.312;9.246;2023-03-21T19:18:18;2.13;;;0.80;;
1753;SDS011;58380;48.312;9.246;2023-03-21T19:20:44;2.53;;;0.77;;
1753;SDS011;58380;48.312;9.246;2023-03-21T19:23:11;3.60;;;1.30;;
1753;SDS011;58380;48.312;9.246;2023-03-21T19:25:36;2.22;;;0.75;;
1753;SDS011;58380;48.312;9.246;2023-03-21T19:28:02;3.05;;;1.50;;
1753;SDS011;58380;48.312;9.246;2023-03-21T19:30:30;3.47;;;0.90;;
1753;SDS011;58380;48.312;9.246;2023-03-21T19:32:59;5.50;;;2.47;;
1753;SDS011;58380;48.312;9.246;2023-03-21T19:35:27;6.53;;;2.17;;
1753;SDS011;58380;48.312;9.246;2023-03-21T19:37:56;4.88;;;1.52;;
1753;SDS011;58380;48.312;9.246;2023-03-21T19:40:25;3.85;;;1.05;;
1753;SDS011;58380;48.312;9.246;2023-03-21T19:42:54;4.85;;;1.13;;
1753;SDS011;58380;48.312;9.246;2023-03-21T19:45:28;5.05;;;1.13;;
1753;SDS011;58380;48.312;9.246;2023-03-21T19:47:56;4.72;;;2.00;;
1753;SDS011;58380;48.312;9.246;2023-03-21T19:50:27;5.78;;;1.70;;
1753;SDS011;58380;48.312;9.246;2023-03-21T19:52:55;4.55;;;2.20;;
1753;SDS011;58380;48.312;9.246;2023-03-21T19:55:51;6.20;;;2.60;;
1753;SDS011;58380;48.312;9.246;2023-03-21T20:01:08;6.05;;;1.67;;
1753;SDS011;58380;48.312;9.246;2023-03-21T20:03:43;3.40;;;1.23;;
1753;SDS011;58380;48.312;9.246;2023-03-21T20:06:31;3.75;;;1.27;;
1753;SDS011;58380;48.312;9.246;2023-03-21T20:08:57;5.00;;;2.20;;
1753;SDS011;58380;48.312;9.246;2023-03-21T20:11:23;9.40;;;2.70;;
1753;SDS011;58380;48.312;9.246;2023-03-21T20:13:49;3.40;;;1.90;;
1753;SDS011;58380;48.312;9.246;2023-03-21T20:16:15;8.18;;;2.63;;
1753;SDS011;58380;48.312;9.246;2023-03-21T20:18:44;6.18;;;2.50;;
1753;SDS011;58380;48.312;9.246;2023-03-21T20:21:10;6.57;;;2.30;;
1753;SDS011;58380;48.312;9.246;2023-03-21T20:23:36;5.47;;;1.90;;
1753;SDS011;58380;48.312;9.246;2023-03-21T20:26:07;3.90;;;1.52;;
1753;SDS011;58380;48.312;9.246;2023-03-21T20:28:36;4.32;;;2.17;;
1753;SDS011;58380;48.312;9.246;2023-03-21T20:33:29;9.20;;;4.45;;
1753;SDS011;58380;48.312;9.246;2023-03-21T20:35:56;12.52;;;5.50;;
1753;SDS011;58380;48.312;9.246;2023-03-21T20:38:26;10.00;;;4.80;;
1753;SDS011;58380;48.312;9.246;2023-03-21T20:40:55;14.38;;;5.70;;
1753;SDS011;58380;48.312;9.246;2023-03-21T20:43:25;12.68;;;6.15;;
1753;SDS011;58380;48.312;9.246;2023-03-21T20:46:07;10.27;;;5.00;;
1753;SDS011;58380;48.312;9.246;2023-03-21T20:48:36;8.73;;;3.97;;
1753;SDS011;58380;48.312;9.246;2023-03-21T20:51:10;7.13;;;3.90;;
1753;SDS011;58380;48.312;9.246;2023-03-21T20:53:36;8.00;;;3.88;;
1753;SDS011;58380;48.312;9.246;2023-03-21T20:56:03;9.07;;;4.15;;
1753;SDS011;58380;48.312;9.246;2023-03-21T20:58:31;9.05;;;5.10;;
1753;SDS011;58380;48.312;9.246;2023-03-21T21:01:03;9.95;;;5.20;;
1753;SDS011;58380;48.312;9.246;2023-03-21T21:03:37;12.50;;;5.70;;
1753;SDS011;58380;48.312;9.246;2023-03-21T21:06:12;11.32;;;5.28;;
1753;SDS011;58380;48.312;9.246;2023-03-21T21:08:42;9.60;;;4.90;;
1753;SDS011;58380;48.312;9.246;2023-03-21T21:11:10;17.02;;;5.13;;
1753;SDS011;58380;48.312;9.246;2023-03-21T21:13:38;7.43;;;4.25;;
1753;SDS011;58380;48.312;9.246;2023-03-21T21:16:04;9.97;;;4.30;;
1753;SDS011;58380;48.312;9.246;2023-03-21T21:18:32;8.30;;;4.35;;
1753;SDS011;58380;48.312;9.246;2023-03-21T21:20:59;8.40;;;4.60;;
1753;SDS011;58380;48.312;9.246;2023-03-21T21:23:30;22.30;;;8.25;;
1753;SDS011;58380;48.312;9.246;2023-03-21T21:26:01;13.45;;;6.47;;
1753;SDS011;58380;48.312;9.246;2023-03-21T21:28:28;12.70;;;6.40;;
1753;SDS011;58380;48.312;9.246;2023-03-21T21:30:56;19.20;;;7.57;;
1753;SDS011;58380;48.312;9.246;2023-03-21T21:33:35;16.33;;;7.75;;
1753;SDS011;58380;48.312;9.246;2023-03-21T21:36:03;14.48;;;7.15;;
1753;SDS011;58380;48.312;9.246;2023-03-21T21:38:31;14.52;;;7.93;;
1753;SDS011;58380;48.312;9.246;2023-03-21T21:40:58;15.82;;;7.53;;
1753;SDS011;58380;48.312;9.246;2023-03-21T21:43:25;16.42;;;7.40;;
1753;SDS011;58380;48.312;9.246;2023-03-21T21:45:52;17.17;;;7.88;;
